Time;durP1;ratioP1;P1;durP2;ratioP2;P2;SDS_P1;SDS_P2;PMS_P1;PMS_P2;Temp;Humidity;BMP_temperature;BMP_pressure;BME280_temperature;BME280_humidity;BME280_pressure;Samples;Min_cycle;Max_cycle;Signal;HPM_P1;HPM_P2
2021/07/03 00:00:09;;;;;;;8.57;7.62;;;;;;;23.69;63.26;99944.34;456667;114;930574;-71
2021/07/03 00:01:12;;;;;;;8.94;7.22;;;;;;;23.71;63.13;99950.40;456743;113;922528;-71
2021/07/03 00:02:16;;;;;;;7.42;6.82;;;;;;;23.73;62.97;99947.31;460539;113;922542;-73
2021/07/03 00:03:20;;;;;;;8.73;7.41;;;;;;;23.73;62.84;99945.34;462154;112;924047;-72
2021/07/03 00:04:25;;;;;;;7.61;6.81;;;;;;;23.75;62.79;99948.65;461999;112;931982;-71
2021/07/03 00:05:28;;;;;;;8.50;7.05;;;;;;;23.77;62.69;99954.70;457698;113;924051;-71
2021/07/03 00:06:33;;;;;;;13.14;8.16;;;;;;;23.77;62.66;99951.91;458416;113;928242;-72
2021/07/03 00:07:36;;;;;;;8.08;7.22;;;;;;;23.75;62.64;99956.17;459628;112;924879;-72
2021/07/03 00:08:51;;;;;;;8.10;6.75;;;;;;;23.73;62.61;99950.09;461224;111;932516;-72
2021/07/03 00:09:55;;;;;;;7.95;6.87;;;;;;;23.69;62.68;99953.52;458312;113;924131;-72
2021/07/03 00:11:01;;;;;;;7.71;7.01;;;;;;;23.64;62.72;99956.44;457578;111;923540;-72
2021/07/03 00:12:07;;;;;;;7.68;6.63;;;;;;;23.59;62.76;99955.74;456176;114;933904;-72
2021/07/03 00:13:11;;;;;;;9.23;6.81;;;;;;;23.51;62.88;99965.66;457494;114;922857;-72
2021/07/03 00:14:16;;;;;;;10.86;7.12;;;;;;;23.44;62.98;99950.49;457349;113;925444;-71
2021/07/03 00:15:21;;;;;;;8.79;6.57;;;;;;;23.37;63.08;99953.73;456622;114;932394;-72
2021/07/03 00:16:25;;;;;;;7.67;6.92;;;;;;;23.30;63.21;99958.91;456871;113;924890;-72
2021/07/03 00:17:29;;;;;;;7.16;6.51;;;;;;;23.24;63.34;99946.25;457659;113;925571;-72
2021/07/03 00:18:33;;;;;;;8.14;6.44;;;;;;;23.18;63.53;99955.84;456751;115;924205;-72
2021/07/03 00:19:37;;;;;;;10.24;7.08;;;;;;;23.13;63.70;99947.63;456588;113;933321;-73
2021/07/03 00:20:41;;;;;;;8.31;6.54;;;;;;;23.11;63.87;99955.44;457162;113;930977;-70
2021/07/03 00:21:44;;;;;;;11.78;6.39;;;;;;;23.10;63.98;99951.84;456750;114;923997;-72
2021/07/03 00:22:49;;;;;;;6.65;6.06;;;;;;;23.12;64.07;99952.36;457276;113;931959;-72
2021/07/03 00:23:52;;;;;;;6.34;5.71;;;;;;;23.14;64.06;99950.09;457132;114;924145;-72
2021/07/03 00:24:56;;;;;;;6.46;5.81;;;;;;;23.19;64.06;99951.94;456849;114;924024;-72
2021/07/03 00:26:00;;;;;;;8.39;6.08;;;;;;;23.20;63.99;99943.28;456357;115;924157;-72
2021/07/03 00:27:05;;;;;;;8.16;6.31;;;;;;;23.23;63.95;99947.37;456297;114;924806;-72
2021/07/03 00:28:09;;;;;;;6.61;5.98;;;;;;;23.24;63.89;99947.08;457099;113;930555;-71
2021/07/03 00:29:13;;;;;;;7.55;6.15;;;;;;;23.24;63.90;99949.86;456961;113;924097;-71
2021/07/03 00:30:18;;;;;;;7.87;5.85;;;;;;;23.24;63.87;99949.03;457471;114;922668;-72
2021/07/03 00:31:21;;;;;;;6.89;5.56;;;;;;;23.24;63.92;99946.25;456997;113;926573;-71
2021/07/03 00:32:25;;;;;;;9.77;5.88;;;;;;;23.25;63.90;99948.73;456629;115;923987;-72
2021/07/03 00:33:29;;;;;;;6.08;5.15;;;;;;;23.27;63.91;99945.61;456537;115;924033;-72
2021/07/03 00:34:33;;;;;;;8.55;5.98;;;;;;;23.27;63.86;99949.22;457150;114;924104;-70
2021/07/03 00:35:37;;;;;;;11.43;7.04;;;;;;;23.29;63.80;99949.73;456967;115;924061;-72
2021/07/03 00:36:42;;;;;;;7.89;6.66;;;;;;;23.31;63.68;99946.64;456522;113;924755;-71
2021/07/03 00:37:46;;;;;;;10.32;7.05;;;;;;;23.32;63.57;99944.69;456822;114;925976;-72
2021/07/03 00:38:49;;;;;;;7.37;6.69;;;;;;;23.29;63.48;99946.13;457103;113;922609;-72
2021/07/03 00:39:53;;;;;;;7.04;6.33;;;;;;;23.26;63.46;99946.77;456295;113;924985;-72
2021/07/03 00:40:57;;;;;;;13.36;6.08;;;;;;;23.21;63.54;99944.11;456585;114;932104;-71
2021/07/03 00:42:01;;;;;;;7.31;6.14;;;;;;;23.17;63.59;99943.07;456775;115;924104;-71
2021/07/03 00:43:05;;;;;;;7.14;5.94;;;;;;;23.11;63.71;99944.32;457612;113;930494;-73
2021/07/03 00:44:10;;;;;;;13.14;6.59;;;;;;;23.07;63.77;99946.09;457166;115;922761;-72
2021/07/03 00:45:14;;;;;;;6.47;5.88;;;;;;;23.02;63.80;99943.43;457146;115;922537;-72
2021/07/03 00:46:20;;;;;;;10.08;6.40;;;;;;;22.97;63.89;99946.33;457230;114;922633;-72
2021/07/03 00:47:24;;;;;;;8.88;6.33;;;;;;;22.91;64.02;99942.84;456865;114;923951;-72
2021/07/03 00:48:30;;;;;;;10.87;6.49;;;;;;;22.86;64.17;99945.73;456582;113;932162;-70
2021/07/03 00:49:35;;;;;;;6.16;5.64;;;;;;;22.85;64.30;99939.34;457004;115;924014;-72
2021/07/03 00:50:40;;;;;;;8.45;6.33;;;;;;;22.86;64.37;99943.77;457643;115;924534;-72
2021/07/03 00:51:44;;;;;;;7.74;6.26;;;;;;;22.90;64.32;99952.30;457351;113;924085;-71
2021/07/03 00:52:48;;;;;;;11.15;6.52;;;;;;;22.92;64.20;99940.87;457062;113;926729;-70
2021/07/03 00:53:54;;;;;;;6.79;5.85;;;;;;;22.94;64.10;99942.20;456650;114;924101;-72
2021/07/03 00:54:58;;;;;;;9.16;6.03;;;;;;;22.97;63.92;99944.38;455989;115;923341;-72
2021/07/03 00:56:02;;;;;;;8.97;6.35;;;;;;;22.99;63.80;99938.50;456727;115;930499;-72
2021/07/03 00:57:07;;;;;;;7.51;6.63;;;;;;;23.02;63.67;99940.65;457124;114;922790;-72
2021/07/03 00:58:13;;;;;;;7.88;6.44;;;;;;;23.04;63.52;99943.95;457299;113;922531;-72
2021/07/03 00:59:16;;;;;;;8.19;6.41;;;;;;;23.06;63.44;99942.48;457146;114;922553;-72
2021/07/03 01:00:23;;;;;;;6.87;6.25;;;;;;;23.07;63.34;99949.70;457258;113;922940;-72
2021/07/03 01:01:26;;;;;;;7.37;6.27;;;;;;;23.08;63.32;99956.91;457100;114;922994;-72
2021/07/03 01:02:30;;;;;;;8.48;5.89;;;;;;;23.09;63.24;99953.00;457127;114;922570;-71
2021/07/03 01:03:34;;;;;;;8.58;6.62;;;;;;;23.10;63.18;99954.62;457014;115;930506;-72
2021/07/03 01:04:38;;;;;;;6.81;6.15;;;;;;;23.10;63.17;99959.39;456956;113;923368;-72
2021/07/03 01:05:43;;;;;;;8.55;6.38;;;;;;;23.10;63.12;99959.39;457167;113;930456;-72
2021/07/03 01:06:47;;;;;;;8.46;6.71;;;;;;;23.09;63.09;99957.73;448681;116;930459;-72
2021/07/03 01:07:51;;;;;;;6.78;6.17;;;;;;;23.08;63.07;99964.42;449012;115;922618;-72
2021/07/03 01:08:55;;;;;;;9.48;6.61;;;;;;;23.06;63.15;99961.13;457106;113;922455;-72
2021/07/03 01:09:59;;;;;;;10.13;6.13;;;;;;;23.06;63.22;99958.34;455584;114;924653;-73
2021/07/03 01:11:03;;;;;;;8.28;5.94;;;;;;;23.06;63.29;99959.17;456548;116;923102;-72
2021/07/03 01:12:09;;;;;;;12.79;6.01;;;;;;;23.07;63.31;99960.82;456448;114;924432;-72
2021/07/03 01:13:13;;;;;;;9.11;6.16;;;;;;;23.08;63.24;99961.65;455836;115;922569;-71
2021/07/03 01:14:18;;;;;;;6.39;5.87;;;;;;;23.08;63.20;99956.91;447137;115;924760;-72
2021/07/03 01:15:24;;;;;;;6.93;5.56;;;;;;;23.07;63.16;99948.88;448568;116;924313;-72
2021/07/03 01:16:29;;;;;;;7.77;5.41;;;;;;;23.03;63.24;99950.64;455878;116;924664;-73
2021/07/03 01:17:33;;;;;;;7.58;5.83;;;;;;;22.97;63.31;99958.27;455629;115;926242;-71
2021/07/03 01:18:37;;;;;;;6.31;5.72;;;;;;;22.88;63.45;99947.05;455983;114;922550;-72
2021/07/03 01:19:42;;;;;;;11.54;6.26;;;;;;;22.80;63.62;99956.14;456625;114;932006;-71
2021/07/03 01:20:50;;;;;;;6.12;5.37;;;;;;;22.72;63.78;99954.07;455873;114;923971;-72
2021/07/03 01:21:55;;;;;;;10.62;5.62;;;;;;;22.63;63.94;99952.30;455806;114;924137;-72
2021/07/03 01:22:59;;;;;;;9.58;6.24;;;;;;;22.52;64.20;99950.88;455504;114;923318;-72
2021/07/03 01:24:03;;;;;;;7.44;5.55;;;;;;;22.41;64.43;99953.86;455379;115;926330;-73
2021/07/03 01:25:09;;;;;;;11.89;5.78;;;;;;;22.34;64.73;99955.39;456032;115;923250;-73
2021/07/03 01:26:14;;;;;;;5.82;5.37;;;;;;;22.24;64.96;99963.92;456150;114;925146;-71
2021/07/03 01:27:17;;;;;;;6.60;5.63;;;;;;;22.17;65.22;99958.77;456407;115;924014;-72
2021/07/03 01:28:21;;;;;;;8.52;6.26;;;;;;;22.14;65.47;99961.34;456419;114;924067;-74
2021/07/03 01:29:26;;;;;;;6.21;5.61;;;;;;;22.11;65.70;99970.30;455625;115;932122;-72
2021/07/03 01:30:33;;;;;;;7.14;6.41;;;;;;;22.06;65.92;99976.74;456088;116;932029;-73
2021/07/03 01:31:42;;;;;;;6.83;6.23;;;;;;;22.01;66.22;99982.39;455564;114;922888;-73
2021/07/03 01:32:46;;;;;;;7.76;7.04;;;;;;;21.96;66.43;99980.53;456366;114;925518;-71
2021/07/03 01:33:51;;;;;;;8.67;6.60;;;;;;;21.92;66.74;99985.02;455434;114;924843;-71
2021/07/03 01:34:55;;;;;;;12.82;8.56;;;;;;;21.91;66.91;99983.37;448282;115;926765;-71
2021/07/03 01:36:00;;;;;;;12.90;11.28;;;;;;;21.89;67.01;99987.56;449339;115;924055;-73
2021/07/03 01:37:04;;;;;;;13.88;11.71;;;;;;;21.87;67.18;99982.34;455982;116;925355;-72
2021/07/03 01:38:19;;;;;;;10.83;8.93;;;;;;;21.87;67.30;99976.78;454580;115;924009;-72
2021/07/03 01:39:24;;;;;;;12.16;9.69;;;;;;;21.90;67.40;99983.66;455907;115;923992;-71
2021/07/03 01:40:30;;;;;;;17.78;10.54;;;;;;;21.95;67.44;99978.87;456405;114;923219;-72
2021/07/03 01:41:35;;;;;;;11.66;10.56;;;;;;;22.01;67.40;99982.39;456318;116;925110;-72
2021/07/03 01:42:39;;;;;;;13.19;10.98;;;;;;;22.07;67.32;99980.34;455715;115;924623;-71
2021/07/03 01:43:43;;;;;;;13.05;10.32;;;;;;;22.11;67.25;99986.95;456408;115;923291;-72
2021/07/03 01:44:49;;;;;;;13.92;10.15;;;;;;;22.16;67.19;99984.09;456232;115;922775;-72
2021/07/03 01:45:54;;;;;;;11.31;9.92;;;;;;;22.21;67.13;99987.59;456534;114;922561;-71
2021/07/03 01:47:00;;;;;;;12.24;9.22;;;;;;;22.26;67.03;99981.94;456304;114;922646;-72
2021/07/03 01:48:04;;;;;;;12.33;9.15;;;;;;;22.33;66.91;99985.11;456615;114;922820;-71
2021/07/03 01:49:09;;;;;;;14.36;9.10;;;;;;;22.38;66.71;99976.68;455752;114;922573;-71
2021/07/03 01:50:16;;;;;;;11.59;8.04;;;;;;;22.40;66.57;99979.16;455692;114;922845;-71
2021/07/03 01:51:20;;;;;;;16.24;8.75;;;;;;;22.41;66.51;99981.64;456773;115;922791;-72
2021/07/03 01:52:24;;;;;;;11.13;9.09;;;;;;;22.42;66.49;99977.73;456181;114;923109;-71
2021/07/03 01:53:29;;;;;;;12.84;8.68;;;;;;;22.46;66.40;99977.93;455718;115;923213;-71
2021/07/03 01:54:36;;;;;;;8.35;7.61;;;;;;;22.49;66.29;99973.73;456513;114;923075;-72
2021/07/03 01:55:41;;;;;;;10.19;8.61;;;;;;;22.50;66.23;99978.95;456338;114;922624;-70
2021/07/03 01:56:57;;;;;;;12.57;7.79;;;;;;;22.55;66.23;99981.62;456121;114;923279;-72
2021/07/03 01:57:53;;;;;;;7.81;7.10;;;;;;;22.59;66.08;99979.91;456094;114;922654;-72
2021/07/03 01:59:09;;;;;;;10.09;7.21;;;;;;;22.63;65.93;99983.70;454660;114;922657;-72
2021/07/03 02:00:18;;;;;;;9.31;7.73;;;;;;;22.69;65.72;99979.69;455112;115;922660;-72
2021/07/03 02:01:27;;;;;;;11.18;8.07;;;;;;;22.74;65.58;99984.34;454991;114;923066;-72
2021/07/03 02:02:30;;;;;;;10.01;8.14;;;;;;;22.78;65.46;99977.02;456592;114;922535;-72
2021/07/03 02:03:35;;;;;;;11.26;7.41;;;;;;;22.80;65.34;99981.16;456091;114;930470;-72
2021/07/03 02:04:40;;;;;;;8.61;7.21;;;;;;;22.82;65.24;99969.73;456068;115;922625;-71
2021/07/03 02:05:46;;;;;;;10.24;7.59;;;;;;;22.80;65.24;99967.25;456383;114;922689;-72
2021/07/03 02:06:51;;;;;;;9.00;8.06;;;;;;;22.80;65.26;99969.21;455385;115;930637;-72
2021/07/03 02:07:56;;;;;;;12.89;8.67;;;;;;;22.82;65.30;99969.73;455909;114;923276;-73
2021/07/03 02:09:00;;;;;;;10.24;8.37;;;;;;;22.84;65.25;99973.00;456526;114;922799;-69
2021/07/03 02:10:04;;;;;;;10.71;8.48;;;;;;;22.86;65.19;99966.02;455542;113;932996;-71
2021/07/03 02:11:08;;;;;;;9.71;8.44;;;;;;;22.91;65.13;99964.25;457071;115;933928;-72
2021/07/03 02:12:13;;;;;;;9.44;8.62;;;;;;;22.94;65.01;99970.00;457582;115;922867;-72
2021/07/03 02:13:18;;;;;;;10.98;9.55;;;;;;;22.98;64.93;99973.00;454901;113;932431;-72
2021/07/03 02:14:22;;;;;;;10.44;9.39;;;;;;;23.00;64.80;99974.31;457251;110;924163;-72
2021/07/03 02:15:39;;;;;;;9.98;8.64;;;;;;;23.01;64.70;99972.36;432714;115;932539;-72
2021/07/03 02:16:45;;;;;;;13.53;8.09;;;;;;;23.00;64.64;99971.53;456269;113;922702;-73
2021/07/03 02:17:51;;;;;;;10.63;8.52;;;;;;;22.97;64.63;99971.34;457098;115;922655;-73
2021/07/03 02:18:55;;;;;;;9.53;7.63;;;;;;;22.96;64.67;99969.70;456884;113;922951;-71
2021/07/03 02:20:00;;;;;;;10.05;9.17;;;;;;;22.95;64.70;99976.39;456674;114;922550;-71
2021/07/03 02:21:06;;;;;;;10.44;7.67;;;;;;;22.96;64.72;99969.70;454193;113;924563;-71
2021/07/03 02:22:11;;;;;;;21.07;7.78;;;;;;;22.98;64.66;99976.61;456214;113;924584;-72
2021/07/03 02:23:17;;;;;;;8.96;7.48;;;;;;;23.00;64.60;99976.27;456973;113;926775;-72
2021/07/03 02:24:23;;;;;;;8.48;6.69;;;;;;;23.02;64.52;99972.06;456979;114;925328;-72
2021/07/03 02:25:28;;;;;;;10.05;6.84;;;;;;;23.05;64.45;99976.16;456723;113;924596;-71
2021/07/03 02:26:34;;;;;;;7.08;6.37;;;;;;;23.07;64.38;99985.84;456581;113;924110;-72
2021/07/03 02:27:39;;;;;;;7.32;6.62;;;;;;;23.09;64.29;99985.55;456577;114;924653;-71
2021/07/03 02:28:44;;;;;;;9.51;6.69;;;;;;;23.10;64.18;99981.64;456931;114;924071;-73
2021/07/03 02:29:50;;;;;;;7.76;6.59;;;;;;;23.12;64.10;99982.12;456699;110;924200;-72
2021/07/03 02:30:54;;;;;;;8.72;6.41;;;;;;;23.14;64.04;99980.69;456776;114;924064;-71
2021/07/03 02:31:58;;;;;;;8.66;6.48;;;;;;;23.15;63.95;99982.34;457126;114;924032;-71
2021/07/03 02:33:02;;;;;;;8.19;6.39;;;;;;;23.17;63.87;99984.79;457141;114;924091;-71
2021/07/03 02:34:06;;;;;;;8.77;6.58;;;;;;;23.18;63.81;99987.27;457691;114;923008;-72
2021/07/03 02:35:12;;;;;;;6.15;5.67;;;;;;;23.20;63.69;99986.96;456691;113;924026;-73
2021/07/03 02:36:16;;;;;;;7.65;6.19;;;;;;;23.21;63.60;99992.19;456160;114;930574;-72
2021/07/03 02:37:20;;;;;;;9.15;5.74;;;;;;;23.21;63.60;99985.83;457273;114;922868;-71
2021/07/03 02:38:24;;;;;;;8.29;6.26;;;;;;;23.23;63.56;99986.32;457085;113;924565;-72
2021/07/03 02:39:28;;;;;;;7.81;6.72;;;;;;;23.26;63.47;99982.93;456801;113;932027;-72
2021/07/03 02:40:34;;;;;;;8.44;6.81;;;;;;;23.28;63.41;99977.86;455946;114;924512;-72
2021/07/03 02:41:39;;;;;;;9.66;7.23;;;;;;;23.28;63.33;99972.30;456970;114;922536;-71
2021/07/03 02:42:43;;;;;;;8.32;6.89;;;;;;;23.28;63.25;99975.91;457078;113;925861;-71
2021/07/03 02:43:47;;;;;;;8.98;6.58;;;;;;;23.27;63.16;99974.25;456806;115;922888;-72
2021/07/03 02:44:51;;;;;;;8.81;7.73;;;;;;;23.28;63.08;99977.86;457053;115;930606;-71
2021/07/03 02:45:55;;;;;;;8.62;7.76;;;;;;;23.28;62.98;99980.64;457207;113;925251;-72
2021/07/03 02:46:59;;;;;;;8.18;7.04;;;;;;;23.28;62.98;99975.08;457252;114;925772;-71
2021/07/03 02:48:03;;;;;;;10.86;7.31;;;;;;;23.27;62.95;99973.42;456386;114;931989;-71
2021/07/03 02:49:07;;;;;;;12.21;6.92;;;;;;;23.28;62.95;99977.86;457298;113;922645;-72
2021/07/03 02:50:18;;;;;;;8.02;7.22;;;;;;;23.29;62.93;99973.95;456036;115;930568;-72
2021/07/03 02:51:23;;;;;;;11.22;6.88;;;;;;;23.30;62.87;99972.81;457104;115;922796;-72
2021/07/03 02:52:27;;;;;;;7.35;6.65;;;;;;;23.29;62.84;99973.95;457468;115;922465;-72
2021/07/03 02:53:31;;;;;;;9.74;6.55;;;;;;;23.29;62.83;99974.77;457429;114;922739;-72
2021/07/03 02:54:35;;;;;;;7.84;6.65;;;;;;;23.28;62.76;99970.34;448277;116;922641;-72
2021/07/03 02:55:39;;;;;;;7.89;6.99;;;;;;;23.28;62.80;99981.47;449305;115;922744;-72
2021/07/03 02:56:43;;;;;;;8.14;7.35;;;;;;;23.26;62.78;99980.15;457345;114;922700;-72
2021/07/03 02:57:47;;;;;;;11.32;7.17;;;;;;;23.24;62.86;99979.63;456897;113;922498;-72
2021/07/03 02:58:51;;;;;;;12.46;6.89;;;;;;;23.21;62.96;99983.05;457085;115;930425;-72
2021/07/03 02:59:54;;;;;;;8.80;8.12;;;;;;;23.21;63.13;99988.61;456796;113;922811;-72
2021/07/03 03:00:59;;;;;;;8.25;7.34;;;;;;;23.23;63.21;99980.77;457309;113;922731;-72
2021/07/03 03:02:03;;;;;;;8.08;6.32;;;;;;;23.25;63.27;99986.84;456932;113;922654;-71
2021/07/03 03:03:08;;;;;;;12.22;7.07;;;;;;;23.26;63.21;99986.54;448527;118;930432;-71
2021/07/03 03:04:11;;;;;;;8.21;7.32;;;;;;;23.28;63.21;99984.25;448212;115;923477;-71
2021/07/03 03:05:16;;;;;;;7.52;6.76;;;;;;;23.31;63.20;99985.59;456445;113;922985;-72
2021/07/03 03:06:19;;;;;;;8.15;7.17;;;;;;;23.32;63.15;99981.68;456731;113;930486;-71
2021/07/03 03:07:25;;;;;;;9.72;6.82;;;;;;;23.35;63.10;99983.82;456511;114;922600;-71
2021/07/03 03:08:29;;;;;;;9.36;6.61;;;;;;;23.36;63.09;99979.91;457342;113;922512;-73
2021/07/03 03:09:33;;;;;;;10.02;6.21;;;;;;;23.38;63.11;99980.40;456992;114;924038;-73
2021/07/03 03:10:39;;;;;;;7.87;6.42;;;;;;;23.39;63.10;99973.70;445916;115;924961;-71
2021/07/03 03:11:43;;;;;;;7.11;6.15;;;;;;;23.41;62.95;99976.17;447285;115;924579;-72
2021/07/03 03:12:48;;;;;;;6.74;6.06;;;;;;;23.42;62.86;99978.66;457649;114;924024;-74
2021/07/03 03:13:54;;;;;;;8.52;6.99;;;;;;;23.43;62.82;99983.05;456762;114;933431;-73
2021/07/03 03:14:59;;;;;;;7.58;6.59;;;;;;;23.44;62.79;99979.14;456963;113;924011;-73
2021/07/03 03:16:06;;;;;;;7.39;6.58;;;;;;;23.47;62.79;99970.22;456785;114;924151;-73
2021/07/03 03:17:09;;;;;;;6.98;6.24;;;;;;;23.47;62.76;99975.78;456610;115;924540;-72
2021/07/03 03:18:13;;;;;;;7.90;7.11;;;;;;;23.49;62.72;99975.44;456090;113;925517;-72
2021/07/03 03:19:17;;;;;;;7.26;6.41;;;;;;;23.50;62.69;99980.70;447789;116;932586;-73
2021/07/03 03:20:23;;;;;;;8.66;6.69;;;;;;;23.51;62.64;99976.78;445980;115;924407;-73
2021/07/03 03:21:26;;;;;;;7.45;6.65;;;;;;;23.53;62.64;99982.05;452511;113;924123;-72
2021/07/03 03:22:30;;;;;;;7.69;6.87;;;;;;;23.53;62.66;99973.70;456510;113;924299;-72
2021/07/03 03:23:34;;;;;;;9.58;7.32;;;;;;;23.55;62.66;99975.01;456915;114;932042;-72
2021/07/03 03:24:37;;;;;;;8.30;7.42;;;;;;;23.56;62.67;99971.09;457066;115;931561;-70
2021/07/03 03:25:41;;;;;;;9.21;8.36;;;;;;;23.58;62.68;99968.00;457138;111;932066;-71
2021/07/03 03:26:46;;;;;;;14.14;7.91;;;;;;;23.59;62.68;99973.27;457251;114;930482;-72
2021/07/03 03:27:51;;;;;;;10.22;7.61;;;;;;;23.61;62.72;99968.19;457508;114;922596;-73
2021/07/03 03:28:54;;;;;;;9.18;8.18;;;;;;;23.62;62.79;99967.05;457247;114;922540;-73
2021/07/03 03:29:59;;;;;;;8.23;7.33;;;;;;;23.63;62.86;99976.23;457158;113;931948;-73
2021/07/03 03:31:03;;;;;;;8.16;7.21;;;;;;;23.64;62.93;99970.35;456762;114;927387;-72
2021/07/03 03:32:09;;;;;;;9.38;8.61;;;;;;;23.66;62.96;99973.62;457467;114;924052;-73
2021/07/03 03:33:13;;;;;;;10.76;8.23;;;;;;;23.67;63.03;99963.31;456521;113;924355;-73
2021/07/03 03:34:17;;;;;;;9.31;6.98;;;;;;;23.68;63.07;99973.31;456976;114;922790;-72
2021/07/03 03:35:21;;;;;;;11.34;6.63;;;;;;;23.68;63.11;99968.58;456936;114;923722;-71
2021/07/03 03:36:26;;;;;;;7.56;6.99;;;;;;;23.68;63.18;99965.79;456844;114;931064;-72
2021/07/03 03:37:30;;;;;;;7.08;6.41;;;;;;;23.70;63.27;99965.48;457128;113;927704;-71
2021/07/03 03:38:33;;;;;;;7.39;6.79;;;;;;;23.72;63.34;99965.14;457712;113;923860;-72
2021/07/03 03:39:37;;;;;;;7.02;5.93;;;;;;;23.73;63.44;99964.01;456894;113;931959;-73
2021/07/03 03:40:42;;;;;;;7.60;6.21;;;;;;;23.76;63.50;99977.31;457063;113;922912;-73
2021/07/03 03:41:48;;;;;;;7.09;6.31;;;;;;;23.76;63.57;99960.61;456419;115;927110;-72
2021/07/03 03:42:52;;;;;;;11.74;5.94;;;;;;;23.77;63.54;99973.36;456691;114;924100;-72
2021/07/03 03:43:57;;;;;;;6.33;5.36;;;;;;;23.78;63.53;99961.09;456562;114;924069;-72
2021/07/03 03:45:05;;;;;;;7.46;5.51;;;;;;;23.78;63.51;99975.84;456782;113;924085;-72
2021/07/03 03:46:13;;;;;;;5.88;5.42;;;;;;;23.80;63.49;99969.96;457143;114;924508;-72
2021/07/03 03:47:19;;;;;;;7.21;4.70;;;;;;;23.80;63.48;99976.36;439204;118;922662;-72
2021/07/03 03:48:23;;;;;;;8.54;5.55;;;;;;;23.83;63.46;99969.31;441130;117;922761;-73
2021/07/03 03:49:28;;;;;;;5.78;5.28;;;;;;;23.85;63.42;99969.83;442033;117;922603;-73
2021/07/03 03:50:34;;;;;;;5.87;5.37;;;;;;;23.86;63.35;99974.27;437731;119;923181;-73
2021/07/03 03:51:38;;;;;;;6.25;4.55;;;;;;;23.85;63.34;99976.22;438127;119;923106;-73
2021/07/03 03:52:42;;;;;;;5.71;5.26;;;;;;;23.90;63.11;99978.05;442806;117;922664;-73
2021/07/03 03:53:46;;;;;;;10.42;4.97;;;;;;;23.90;63.11;99978.05;439689;117;922990;-73
2021/07/03 03:54:50;;;;;;;5.84;4.51;;;;;;;23.92;63.35;99975.78;444427;118;930517;-73
2021/07/03 03:55:55;;;;;;;6.32;4.99;;;;;;;23.93;63.36;99977.40;435082;120;930653;-72
2021/07/03 03:58:23;;;;;;;10.43;4.88;;;;;;;23.95;63.56;99975.12;454560;113;923139;-73
2021/07/03 03:59:27;;;;;;;5.55;4.96;;;;;;;23.94;63.51;99974.30;457527;113;922522;-72
2021/07/03 04:00:32;;;;;;;6.30;4.37;;;;;;;23.95;63.60;99967.60;456764;113;922679;-72
2021/07/03 04:01:37;;;;;;;6.52;4.66;;;;;;;23.95;63.71;99970.39;456738;113;922628;-73
2021/07/03 04:02:41;;;;;;;8.35;4.97;;;;;;;23.97;63.74;99970.08;455969;114;922680;-72
2021/07/03 04:03:48;;;;;;;12.66;5.06;;;;;;;23.97;63.81;99965.33;456669;113;930508;-71
2021/07/03 04:04:52;;;;;;;9.45;4.39;;;;;;;23.99;63.85;99974.17;457036;113;922579;-71
2021/07/03 04:05:56;;;;;;;5.37;4.11;;;;;;;24.02;63.86;99969.94;453372;114;930670;-72
2021/07/03 04:07:00;;;;;;;6.45;5.29;;;;;;;24.04;63.82;99974.03;453249;114;923067;-72
2021/07/03 04:08:04;;;;;;;5.69;5.26;;;;;;;24.06;63.76;99971.77;457325;114;922466;-72
2021/07/03 04:09:08;;;;;;;6.69;5.48;;;;;;;24.08;63.78;99971.45;457096;114;925506;-72
2021/07/03 04:10:14;;;;;;;5.78;5.00;;;;;;;24.12;63.68;99975.23;457632;113;922700;-73
2021/07/03 04:11:18;;;;;;;6.56;4.97;;;;;;;24.12;63.68;99975.23;457421;114;924023;-72
2021/07/03 04:12:21;;;;;;;7.65;5.00;;;;;;;24.14;63.74;99970.18;458795;113;924089;-72
2021/07/03 04:13:25;;;;;;;6.94;4.72;;;;;;;24.16;63.73;99975.41;458149;113;924112;-72
2021/07/03 04:14:29;;;;;;;5.33;4.91;;;;;;;24.18;63.79;99979.56;457963;113;933700;-72
2021/07/03 04:15:32;;;;;;;5.05;4.61;;;;;;;24.21;63.75;99976.13;457910;114;932702;-71
2021/07/03 04:16:36;;;;;;;8.11;5.02;;;;;;;24.23;63.71;99976.64;456130;114;933402;-73
2021/07/03 04:17:40;;;;;;;5.21;4.47;;;;;;;24.22;63.57;99974.98;457920;114;932036;-72
2021/07/03 04:18:44;;;;;;;5.72;5.11;;;;;;;24.22;63.55;99972.20;457768;114;935175;-71
2021/07/03 04:19:47;;;;;;;6.15;5.74;;;;;;;24.22;63.62;99974.98;450023;116;924827;-73
2021/07/03 04:20:52;;;;;;;8.16;7.22;;;;;;;24.23;63.57;99967.45;450807;115;930611;-72
2021/07/03 04:21:56;;;;;;;7.67;5.39;;;;;;;24.25;63.67;99965.19;457623;113;931950;-74
2021/07/03 04:22:59;;;;;;;5.10;4.59;;;;;;;24.26;63.77;99964.05;457782;113;932400;-72
2021/07/03 04:24:04;;;;;;;8.70;5.52;;;;;;;24.28;63.74;99956.17;457736;114;926456;-72
2021/07/03 04:25:11;;;;;;;5.92;5.39;;;;;;;24.27;63.83;99960.92;457817;113;931965;-71
2021/07/03 04:26:16;;;;;;;7.52;5.20;;;;;;;24.28;63.93;99958.95;457595;113;924108;-72
2021/07/03 04:27:20;;;;;;;6.11;5.40;;;;;;;24.28;64.07;99956.17;457599;114;926232;-70
2021/07/03 04:28:23;;;;;;;9.81;5.01;;;;;;;24.30;64.17;99951.11;457795;114;923935;-73
2021/07/03 04:29:28;;;;;;;7.17;4.89;;;;;;;24.31;64.25;99949.97;457465;113;924078;-72
2021/07/03 04:30:33;;;;;;;6.32;5.02;;;;;;;24.33;64.26;99945.70;457223;113;932805;-72
2021/07/03 04:31:37;;;;;;;5.76;5.02;;;;;;;24.35;64.27;99940.64;457291;113;922604;-72
2021/07/03 04:32:41;;;;;;;6.09;5.21;;;;;;;24.38;64.24;99942.77;458184;114;922831;-70
2021/07/03 04:33:45;;;;;;;7.62;4.86;;;;;;;24.41;64.18;99939.36;458234;115;932408;-73
2021/07/03 04:34:48;;;;;;;5.30;4.82;;;;;;;24.43;64.17;99931.48;458384;114;924456;-71
2021/07/03 04:35:52;;;;;;;5.89;4.94;;;;;;;24.46;64.18;99930.03;458032;110;932121;-73
2021/07/03 04:36:57;;;;;;;5.61;5.14;;;;;;;24.48;64.15;99928.55;457807;114;932103;-73
2021/07/03 04:38:01;;;;;;;7.33;5.08;;;;;;;24.53;64.23;99925.61;457920;113;930569;-72
2021/07/03 04:39:05;;;;;;;5.09;4.62;;;;;;;24.53;64.23;99925.61;456391;114;924081;-73
2021/07/03 04:40:10;;;;;;;5.39;4.81;;;;;;;24.57;64.07;99919.40;451896;116;933356;-72
2021/07/03 04:41:14;;;;;;;5.01;4.61;;;;;;;24.59;64.09;99915.13;452735;115;926388;-72
2021/07/03 04:42:18;;;;;;;5.21;4.72;;;;;;;24.62;63.91;99919.25;458459;114;924022;-72
2021/07/03 04:43:21;;;;;;;6.24;4.75;;;;;;;24.64;63.78;99916.97;458494;114;932081;-75
2021/07/03 04:44:25;;;;;;;8.24;5.05;;;;;;;24.65;63.81;99913.02;457837;113;923998;-73
2021/07/03 04:45:29;;;;;;;6.91;5.32;;;;;;;24.68;63.84;99917.95;448881;115;923508;-72
2021/07/03 04:46:34;;;;;;;6.86;5.60;;;;;;;24.70;63.80;99910.09;450848;114;924051;-72
2021/07/03 04:47:38;;;;;;;6.91;5.53;;;;;;;24.73;63.71;99910.26;457723;113;924003;-72
2021/07/03 04:48:42;;;;;;;7.91;6.83;;;;;;;24.76;63.68;99911.56;457764;113;925815;-73
2021/07/03 04:49:46;;;;;;;15.26;12.07;;;;;;;24.78;63.61;99910.10;457980;114;926939;-71
2021/07/03 04:50:49;;;;;;;7.32;5.75;;;;;;;24.82;63.59;99904.69;458350;113;924002;-75
2021/07/03 04:51:53;;;;;;;13.94;12.16;;;;;;;24.84;63.39;99905.19;457941;113;922684;-73
2021/07/03 04:52:57;;;;;;;6.19;5.48;;;;;;;24.87;63.21;99898.95;458409;113;922746;-72
2021/07/03 04:54:01;;;;;;;4.60;4.24;;;;;;;24.90;63.07;99906.70;458338;114;922813;-73
2021/07/03 04:55:06;;;;;;;5.74;5.27;;;;;;;24.92;63.02;99896.03;458394;113;930610;-73
2021/07/03 04:56:11;;;;;;;9.97;4.58;;;;;;;24.95;63.02;99900.97;449309;116;930578;-73
2021/07/03 04:57:15;;;;;;;6.04;4.55;;;;;;;24.98;62.96;99907.84;450665;115;923069;-72
2021/07/03 04:58:18;;;;;;;5.92;5.03;;;;;;;25.01;62.94;99905.25;458153;115;930495;-73
2021/07/03 04:59:22;;;;;;;5.72;4.43;;;;;;;25.03;62.74;99902.93;458271;115;923022;-73
2021/07/03 05:00:27;;;;;;;6.18;4.61;;;;;;;25.06;62.47;99905.08;457087;113;930791;-73